Time;durP1;ratioP1;P1;durP2;ratioP2;P2;SDS_P1;SDS_P2;PMS_P1;PMS_P2;Temp;Humidity;BMP_temperature;BMP_pressure;BME280_temperature;BME280_humidity;BME280_pressure;Samples;Min_cycle;Max_cycle;Signal;HPM_P1;HPM_P2
2022/06/17 00:02:05;;;;;;;13.10;9.88;;;;;;;15.31;72.62;98736.66;5111093;28;20038;-85
2022/06/17 00:04:31;;;;;;;14.40;10.35;;;;;;;15.27;72.71;98743.97;5113234;28;20024;-84
2022/06/17 00:06:59;;;;;;;13.85;10.93;;;;;;;15.20;72.49;98740.84;5113017;28;20038;-85
2022/06/17 00:09:27;;;;;;;14.43;11.13;;;;;;;15.16;72.80;98748.97;5111035;28;20028;-85
2022/06/17 00:11:53;;;;;;;16.13;11.48;;;;;;;15.09;72.57;98737.56;5113557;28;20030;-85
2022/06/17 00:14:25;;;;;;;16.42;11.30;;;;;;;15.07;72.78;98745.34;5112741;28;20069;-84
2022/06/17 00:16:51;;;;;;;16.10;11.38;;;;;;;15.03;72.88;98742.44;5112464;28;20036;-86
2022/06/17 00:19:18;;;;;;;13.80;10.10;;;;;;;15.01;72.77;98735.59;5113314;28;20026;-79
2022/06/17 00:21:49;;;;;;;13.27;10.40;;;;;;;14.97;73.15;98737.34;5094607;28;20166;-81
2022/06/17 00:24:26;;;;;;;13.35;10.75;;;;;;;14.95;73.26;98739.63;5112628;28;20030;-81
2022/06/17 00:26:54;;;;;;;14.15;10.48;;;;;;;14.94;73.21;98736.06;5111755;28;20150;-81
2022/06/17 00:29:22;;;;;;;12.82;9.60;;;;;;;14.91;73.40;98731.16;5112260;27;20027;-86
2022/06/17 00:31:48;;;;;;;14.32;10.63;;;;;;;14.92;73.33;98732.78;5112318;28;20507;-86
2022/06/17 00:34:13;;;;;;;12.68;10.48;;;;;;;14.89;73.52;98731.47;5112375;28;20027;-86
2022/06/17 00:36:40;;;;;;;14.07;10.90;;;;;;;14.88;73.37;98735.34;5112588;28;20015;-86
2022/06/17 00:39:17;;;;;;;18.92;11.63;;;;;;;14.86;73.11;98734.88;5112475;28;20080;-85
2022/06/17 00:41:46;;;;;;;17.20;11.20;;;;;;;14.84;73.60;98731.63;5112407;28;20027;-86
2022/06/17 00:44:40;;;;;;;15.77;11.05;;;;;;;14.83;73.46;98734.69;5112565;28;20031;-86
2022/06/17 00:47:19;;;;;;;16.48;11.60;;;;;;;14.79;73.37;98741.97;5110130;28;20016;-86
2022/06/17 00:50:00;;;;;;;15.65;10.85;;;;;;;14.75;73.37;98739.06;5112614;28;20053;-85
2022/06/17 00:52:36;;;;;;;15.15;11.23;;;;;;;14.72;73.56;98739.69;5111250;28;20032;-85
2022/06/17 00:55:10;;;;;;;14.18;10.93;;;;;;;14.68;73.45;98738.66;5112498;28;20399;-86
2022/06/17 00:57:39;;;;;;;16.13;11.77;;;;;;;14.64;73.37;98738.50;5112127;28;20031;-86
2022/06/17 01:00:04;;;;;;;14.73;11.20;;;;;;;14.62;73.44;98735.22;5094047;28;20411;-86
2022/06/17 01:02:35;;;;;;;12.15;8.88;;;;;;;14.59;73.28;98727.56;5112614;28;20027;-86
2022/06/17 01:05:03;;;;;;;12.48;10.00;;;;;;;14.55;73.29;98727.38;5093557;28;20045;-86
2022/06/17 01:07:34;;;;;;;13.50;10.70;;;;;;;14.52;73.33;98729.97;5093180;28;20019;-85
2022/06/17 01:10:08;;;;;;;15.35;11.60;;;;;;;14.50;73.36;98732.22;5112734;28;20031;-85
2022/06/17 01:12:38;;;;;;;14.80;10.95;;;;;;;14.43;73.39;98727.16;5111877;28;20026;-86
2022/06/17 01:15:05;;;;;;;13.02;9.57;;;;;;;14.41;73.54;98724.69;5111853;28;20059;-85
2022/06/17 01:17:32;;;;;;;11.50;8.77;;;;;;;14.41;73.84;98726.66;5111581;28;20019;-85
2022/06/17 01:20:00;;;;;;;11.48;8.38;;;;;;;14.42;73.88;98726.34;5111921;28;20054;-86
2022/06/17 01:22:39;;;;;;;10.93;8.38;;;;;;;14.45;74.16;98738.69;5110219;28;20106;-85
2022/06/17 01:25:11;;;;;;;12.50;8.25;;;;;;;14.45;74.23;98733.19;5093497;28;20517;-86
2022/06/17 01:27:42;;;;;;;10.95;8.07;;;;;;;14.46;74.28;98740.34;5111366;28;20070;-85
2022/06/17 01:30:11;;;;;;;11.18;8.05;;;;;;;14.46;74.55;98745.84;5110665;28;20027;-86
2022/06/17 01:32:44;;;;;;;10.07;8.07;;;;;;;14.49;74.63;98756.22;5112178;28;20078;-86
2022/06/17 01:35:10;;;;;;;10.80;7.95;;;;;;;14.53;74.65;98757.22;5112911;28;20036;-85
2022/06/17 01:37:35;;;;;;;10.60;7.80;;;;;;;14.52;75.17;98750.09;5112578;28;20387;-85
2022/06/17 01:40:02;;;;;;;10.23;8.10;;;;;;;14.51;74.82;98756.72;5112921;28;20039;-85
2022/06/17 01:42:28;;;;;;;9.65;8.07;;;;;;;14.52;75.19;98763.88;5112667;28;20038;-86
2022/06/17 01:44:54;;;;;;;10.25;8.38;;;;;;;14.51;75.48;98765.00;5112604;28;20023;-84
2022/06/17 01:47:24;;;;;;;10.80;8.18;;;;;;;14.49;75.11;98777.50;5112435;28;20027;-85
2022/06/17 01:49:57;;;;;;;10.10;8.57;;;;;;;14.44;75.50;98778.47;5113138;28;20015;-85
2022/06/17 01:52:37;;;;;;;10.48;7.57;;;;;;;14.39;75.31;98779.38;5113065;28;20024;-86
2022/06/17 01:55:14;;;;;;;9.65;7.10;;;;;;;14.34;75.65;98778.72;5111024;27;20059;-87
2022/06/17 01:57:45;;;;;;;9.10;7.40;;;;;;;14.25;76.05;98775.91;5111223;28;20019;-85
2022/06/17 02:00:16;;;;;;;8.32;7.53;;;;;;;14.17;75.91;98771.91;5112371;28;20035;-87
2022/06/17 02:02:44;;;;;;;10.02;7.78;;;;;;;14.07;76.14;98781.25;5111614;28;20024;-85
2022/06/17 02:05:10;;;;;;;11.38;9.32;;;;;;;14.01;76.79;98779.75;5111607;28;20733;-86
2022/06/17 02:07:43;;;;;;;11.48;9.63;;;;;;;13.98;76.14;98785.88;5092274;28;20023;-85
2022/06/17 02:10:09;;;;;;;10.43;8.45;;;;;;;13.92;76.46;98789.88;5111266;28;20023;-86
2022/06/17 02:12:36;;;;;;;10.68;9.20;;;;;;;13.87;76.44;98801.84;5110906;28;20499;-84
2022/06/17 02:15:02;;;;;;;10.52;9.10;;;;;;;13.84;76.36;98800.53;5111396;28;20092;-85
2022/06/17 02:17:32;;;;;;;11.77;10.35;;;;;;;13.80;76.54;98799.53;5110778;28;20104;-85
2022/06/17 02:19:58;;;;;;;15.23;11.80;;;;;;;13.76;77.09;98805.94;5111460;28;20061;-86
2022/06/17 02:22:29;;;;;;;13.80;11.30;;;;;;;13.72;77.39;98813.19;5093077;28;20107;-86
2022/06/17 02:24:59;;;;;;;14.63;12.77;;;;;;;13.66;77.60;98818.00;5110783;28;20373;-84
2022/06/17 02:27:27;;;;;;;15.85;12.35;;;;;;;13.64;77.23;98807.31;5110467;28;20495;-84
2022/06/17 02:29:54;;;;;;;15.48;11.75;;;;;;;13.62;77.81;98812.31;5092702;28;20107;-87
2022/06/17 02:32:20;;;;;;;14.40;11.35;;;;;;;13.65;77.99;98819.94;5111167;28;20019;-85
2022/06/17 02:34:53;;;;;;;13.93;11.27;;;;;;;13.62;77.29;98815.06;5111185;28;20050;-85
2022/06/17 02:37:19;;;;;;;13.02;11.25;;;;;;;13.65;77.09;98814.41;5109888;28;20077;-80
2022/06/17 02:39:49;;;;;;;14.38;11.50;;;;;;;13.67;77.39;98811.38;5110559;28;20027;-81
2022/06/17 02:42:22;;;;;;;15.45;11.07;;;;;;;13.70;77.51;98819.03;5111227;28;20024;-79
2022/06/17 02:44:53;;;;;;;12.90;10.43;;;;;;;13.71;77.26;98826.16;5111100;28;20016;-81
2022/06/17 02:47:19;;;;;;;13.38;10.32;;;;;;;13.73;77.30;98809.31;5110255;28;20016;-82
2022/06/17 02:49:45;;;;;;;12.70;9.95;;;;;;;13.77;77.39;98813.09;5111435;28;20058;-80
2022/06/17 02:52:16;;;;;;;11.73;9.38;;;;;;;13.81;77.41;98814.09;5110780;28;20031;-81
2022/06/17 02:54:56;;;;;;;12.73;9.63;;;;;;;13.83;77.34;98822.88;5110814;28;20027;-81
2022/06/17 02:57:27;;;;;;;13.07;9.32;;;;;;;13.86;77.21;98825.03;5110018;28;20042;-80
2022/06/17 03:00:17;;;;;;;13.30;8.85;;;;;;;13.89;77.16;98832.69;5110641;28;20081;-77
2022/06/17 03:02:51;;;;;;;10.70;8.68;;;;;;;13.89;77.26;98843.72;5083947;28;20032;-78
2022/06/17 03:05:22;;;;;;;11.23;8.25;;;;;;;13.88;77.10;98831.03;5110926;28;20390;-79
2022/06/17 03:07:49;;;;;;;11.52;9.00;;;;;;;13.89;77.30;98829.09;5109244;28;20050;-78
2022/06/17 03:10:24;;;;;;;10.77;8.35;;;;;;;13.88;76.82;98833.81;5110657;28;20077;-79
2022/06/17 03:12:56;;;;;;;9.07;8.07;;;;;;;13.89;77.22;98848.38;5110866;28;20030;-79
2022/06/17 03:15:23;;;;;;;11.05;8.00;;;;;;;13.86;77.40;98858.09;5092115;28;20055;-79
2022/06/17 03:17:48;;;;;;;9.57;7.95;;;;;;;13.80;76.98;98856.56;5109252;28;20034;-79
2022/06/17 03:20:19;;;;;;;9.88;8.88;;;;;;;13.80;77.16;98864.84;5092119;28;20020;-80
2022/06/17 03:22:49;;;;;;;10.85;8.85;;;;;;;13.76;77.64;98872.09;5110965;28;20387;-79
2022/06/17 03:25:50;;;;;;;10.32;8.05;;;;;;;13.74;76.89;98866.06;5110737;28;20076;-78
2022/06/17 03:28:23;;;;;;;11.02;7.72;;;;;;;13.75;76.78;98881.50;5091895;28;20049;-78
2022/06/17 03:30:56;;;;;;;11.50;8.35;;;;;;;13.75;76.96;98870.47;5094983;28;20469;-79
2022/06/17 03:33:35;;;;;;;11.32;7.90;;;;;;;13.74;76.98;98879.84;5110539;28;20024;-79
2022/06/17 03:36:11;;;;;;;12.60;8.07;;;;;;;13.73;77.15;98878.22;5111221;28;20027;-79
2022/06/17 03:38:42;;;;;;;10.73;7.32;;;;;;;13.73;77.00;98880.97;5096001;28;20533;-78
2022/06/17 03:42:12;;;;;;;10.35;7.60;;;;;;;13.72;76.85;98885.69;5113284;28;20038;-79
2022/06/17 03:44:46;;;;;;;10.27;6.72;;;;;;;13.74;76.66;98890.88;5009576;28;20050;-79
2022/06/17 03:47:22;;;;;;;8.20;6.70;;;;;;;13.72;76.98;98896.72;5011140;28;20030;-79
2022/06/17 03:49:55;;;;;;;9.20;6.88;;;;;;;13.70;77.24;98910.00;5089951;28;20040;-79
2022/06/17 03:52:39;;;;;;;8.13;6.80;;;;;;;13.66;76.78;98900.69;5114425;28;20242;-79
2022/06/17 03:55:08;;;;;;;9.38;6.70;;;;;;;13.68;76.83;98913.03;5114236;28;20059;-80
2022/06/17 03:57:33;;;;;;;9.90;7.05;;;;;;;13.70;77.72;98908.03;5113625;28;20016;-79
2022/06/17 04:00:00;;;;;;;9.00;6.82;;;;;;;13.67;76.98;98913.34;5114123;28;20055;-78
2022/06/17 04:02:29;;;;;;;12.20;7.78;;;;;;;13.66;77.11;98912.53;5114307;28;20020;-79
2022/06/17 04:04:56;;;;;;;8.57;7.68;;;;;;;13.68;77.16;98915.78;5114298;28;20015;-79
2022/06/17 04:07:22;;;;;;;9.00;8.05;;;;;;;13.71;77.13;98922.66;5095222;28;20027;-79
2022/06/17 04:09:48;;;;;;;10.95;8.32;;;;;;;13.72;76.80;98929.78;5113374;28;20035;-79
2022/06/17 04:12:19;;;;;;;11.73;6.97;;;;;;;13.77;77.17;98928.88;5113912;28;20502;-79
2022/06/17 04:14:48;;;;;;;9.73;6.68;;;;;;;13.79;76.79;98940.41;5113581;28;20066;-80
2022/06/17 04:17:34;;;;;;;8.00;7.20;;;;;;;13.83;76.91;98939.50;5113399;28;20054;-80
2022/06/17 04:20:33;;;;;;;9.45;6.10;;;;;;;13.88;76.91;98946.00;5113512;28;20027;-80
2022/06/17 04:23:05;;;;;;;10.32;6.93;;;;;;;13.92;76.68;98958.91;5113800;28;20036;-79
2022/06/17 04:25:52;;;;;;;9.27;6.30;;;;;;;13.97;76.75;98958.81;5113371;28;20518;-80
2022/06/17 04:28:22;;;;;;;7.15;5.20;;;;;;;14.04;76.46;98965.84;5112840;28;20019;-80
2022/06/17 04:30:53;;;;;;;6.85;5.32;;;;;;;14.09;76.63;98962.97;5114709;27;20286;-79
2022/06/17 04:33:23;;;;;;;6.70;4.78;;;;;;;14.12;76.03;98970.63;5112063;28;20497;-86
2022/06/17 04:36:03;;;;;;;6.93;5.10;;;;;;;14.19;76.24;98973.78;5112890;28;20038;-86
2022/06/17 04:38:31;;;;;;;7.10;4.82;;;;;;;14.27;76.54;98975.00;5113208;28;20161;-86
2022/06/17 04:41:00;;;;;;;5.80;4.20;;;;;;;14.31;75.87;98981.53;5113573;28;20023;-86
2022/06/17 04:43:40;;;;;;;5.78;4.70;;;;;;;14.36;76.01;98967.63;5113425;28;20024;-85
2022/06/17 04:46:09;;;;;;;5.03;4.53;;;;;;;14.43;75.76;98967.25;5113525;28;20073;-85
2022/06/17 04:48:35;;;;;;;5.13;4.22;;;;;;;14.48;75.56;98971.81;5112666;28;20040;-85
2022/06/17 04:51:02;;;;;;;5.38;4.07;;;;;;;14.52;75.63;98972.84;5113362;28;20547;-86
2022/06/17 04:53:29;;;;;;;6.28;4.07;;;;;;;14.59;75.44;98976.00;5113380;28;20479;-85
2022/06/17 04:55:55;;;;;;;4.93;3.72;;;;;;;14.66;75.23;98978.31;5112791;28;20042;-86
2022/06/17 04:58:23;;;;;;;5.25;3.97;;;;;;;14.65;75.06;98984.97;5112866;28;20103;-85
2022/06/17 05:00:54;;;;;;;5.82;4.55;;;;;;;14.61;74.91;98984.78;5113235;28;20486;-85
2022/06/17 05:03:20;;;;;;;5.50;3.80;;;;;;;14.62;75.00;98986.41;5112129;27;20555;-86
2022/06/17 05:05:46;;;;;;;6.32;4.10;;;;;;;14.62;74.90;98986.41;5112362;28;20036;-86
2022/06/17 05:08:20;;;;;;;7.47;4.80;;;;;;;14.69;75.13;98986.00;5116796;27;20068;-83
2022/06/17 05:10:50;;;;;;;6.63;4.22;;;;;;;14.72;75.05;98988.16;5111527;28;20039;-84
2022/06/17 05:13:43;;;;;;;6.32;4.15;;;;;;;14.74;74.69;98994.19;5112470;28;20491;-83
2022/06/17 05:16:12;;;;;;;4.43;3.67;;;;;;;14.76;74.49;98982.81;5111656;28;20063;-81
2022/06/17 05:18:38;;;;;;;5.10;3.78;;;;;;;14.79;74.53;98987.72;5111473;28;20119;-82
2022/06/17 05:21:04;;;;;;;7.80;4.00;;;;;;;14.83;74.61;98980.44;5112010;28;20019;-83
2022/06/17 05:23:29;;;;;;;5.43;4.07;;;;;;;14.88;74.36;98977.56;5112577;28;20600;-84
2022/06/17 05:25:55;;;;;;;6.25;4.53;;;;;;;14.91;74.52;98981.63;5110487;28;20028;-83
2022/06/17 05:28:21;;;;;;;6.53;3.83;;;;;;;14.88;74.00;98989.41;5111013;28;20027;-83
2022/06/17 05:30:54;;;;;;;5.40;3.55;;;;;;;14.89;73.97;98977.25;5110969;28;20027;-85
2022/06/17 05:33:20;;;;;;;3.85;3.35;;;;;;;14.92;73.72;98983.28;5109432;28;20019;-85
2022/06/17 05:35:47;;;;;;;4.43;3.45;;;;;;;14.95;73.84;98982.66;5110358;28;20391;-86
2022/06/17 05:38:12;;;;;;;4.45;3.75;;;;;;;14.95;73.92;98983.47;5110893;28;20076;-86
2022/06/17 05:40:38;;;;;;;5.47;3.50;;;;;;;15.00;73.49;98994.41;5093079;28;20035;-85
2022/06/17 05:43:05;;;;;;;4.43;3.67;;;;;;;15.01;73.75;98986.94;5111649;28;20015;-85
2022/06/17 05:45:31;;;;;;;4.65;3.53;;;;;;;15.05;73.66;98989.91;5111408;28;20487;-86
2022/06/17 05:47:57;;;;;;;5.50;3.42;;;;;;;15.06;73.29;98992.34;5110648;28;20066;-84
2022/06/17 05:50:24;;;;;;;4.35;3.80;;;;;;;15.13;73.56;98995.47;5110373;28;20110;-85
2022/06/17 05:52:54;;;;;;;7.05;3.70;;;;;;;15.20;73.14;98999.75;5110867;28;20012;-85
2022/06/17 05:55:22;;;;;;;5.35;3.53;;;;;;;15.25;73.67;98996.88;5111105;28;20024;-85
2022/06/17 05:57:47;;;;;;;5.70;3.63;;;;;;;15.31;73.14;99003.88;5091609;28;20023;-85
2022/06/17 06:00:14;;;;;;;8.32;4.07;;;;;;;15.35;73.07;99004.09;5109728;28;20018;-85
2022/06/17 06:02:40;;;;;;;6.00;3.95;;;;;;;15.40;72.68;99007.53;5110416;28;20098;-87
2022/06/17 06:05:07;;;;;;;6.65;4.05;;;;;;;15.44;73.05;99010.50;5110322;28;20123;-85
2022/06/17 06:07:32;;;;;;;4.72;4.00;;;;;;;15.50;72.85;99005.63;5109701;28;20487;-85
2022/06/17 06:09:58;;;;;;;7.05;4.10;;;;;;;15.58;72.53;99005.69;5110159;28;20027;-84
2022/06/17 06:12:53;;;;;;;5.75;3.90;;;;;;;15.70;72.65;99004.28;5110438;28;20018;-85
2022/06/17 06:15:11;;;;;;;4.55;3.75;;;;;;;15.74;72.11;99010.81;5109458;28;20044;-85
2022/06/17 06:17:37;;;;;;;6.15;3.63;;;;;;;15.77;71.73;99015.72;5109738;28;20425;-86
2022/06/17 06:20:02;;;;;;;6.97;3.90;;;;;;;15.76;71.70;99009.34;5109699;28;20056;-84
2022/06/17 06:22:28;;;;;;;6.88;3.85;;;;;;;15.74;71.58;99016.34;5110062;28;20024;-83
2022/06/17 06:24:53;;;;;;;8.30;4.07;;;;;;;15.75;71.72;99020.75;5110747;28;20510;-84
2022/06/17 06:27:18;;;;;;;5.97;3.38;;;;;;;15.79;71.78;99016.22;5111030;28;20020;-85
2022/06/17 06:29:45;;;;;;;6.97;3.63;;;;;;;15.84;72.03;99005.03;5110932;28;20479;-84
2022/06/17 06:32:10;;;;;;;5.95;3.20;;;;;;;16.01;71.91;99007.09;5110995;28;20034;-85
2022/06/17 06:34:36;;;;;;;5.68;3.53;;;;;;;16.15;71.55;99006.97;5111110;28;20032;-86
2022/06/17 06:37:02;;;;;;;4.60;3.60;;;;;;;16.29;70.82;99017.13;5092921;28;20035;-84
2022/06/17 06:39:27;;;;;;;5.00;3.80;;;;;;;16.35;70.61;99016.63;5110706;28;20596;-84
2022/06/17 06:41:53;;;;;;;5.72;3.55;;;;;;;16.48;71.03;99022.38;5111025;28;20597;-82
2022/06/17 06:44:18;;;;;;;5.28;3.67;;;;;;;16.59;70.27;99018.16;5111156;28;20023;-82
2022/06/17 06:46:43;;;;;;;6.15;4.00;;;;;;;16.63;70.37;99026.63;5110801;28;20415;-84
2022/06/17 06:49:09;;;;;;;7.53;4.43;;;;;;;16.71;70.24;99020.28;5110798;28;20028;-84
2022/06/17 06:51:34;;;;;;;6.82;4.28;;;;;;;16.78;69.71;99017.84;5110506;28;20019;-82
2022/06/17 06:54:00;;;;;;;5.72;4.68;;;;;;;16.86;69.64;99015.41;5092262;28;20543;-83
2022/06/17 06:56:25;;;;;;;6.47;4.32;;;;;;;16.99;69.54;99008.13;5110817;28;20019;-85
2022/06/17 06:58:50;;;;;;;6.15;4.00;;;;;;;17.16;69.39;99016.44;5111424;28;20055;-83
2022/06/17 07:01:16;;;;;;;5.95;4.10;;;;;;;17.27;68.94;99019.69;5110834;28;20030;-83
2022/06/17 07:03:41;;;;;;;8.13;4.95;;;;;;;17.40;69.21;99020.66;5092641;28;20024;-83
2022/06/17 07:06:07;;;;;;;9.10;5.97;;;;;;;17.53;68.64;99019.66;5092056;28;20027;-85
2022/06/17 07:08:35;;;;;;;9.63;5.25;;;;;;;17.64;68.25;99016.53;5110540;28;20019;-83
2022/06/17 07:11:02;;;;;;;6.70;4.47;;;;;;;17.77;68.50;99020.25;5110097;28;20038;-84
2022/06/17 07:13:30;;;;;;;6.78;5.40;;;;;;;17.90;67.59;99022.03;5110474;28;20031;-84
2022/06/17 07:15:57;;;;;;;7.22;4.43;;;;;;;17.97;67.17;99022.31;5110014;28;20444;-84
2022/06/17 07:18:25;;;;;;;8.20;5.22;;;;;;;18.09;66.78;99013.31;5110486;28;20422;-82
2022/06/17 07:20:56;;;;;;;8.13;5.22;;;;;;;18.20;66.92;99015.72;5110671;28;20050;-83
2022/06/17 07:23:34;;;;;;;5.97;4.60;;;;;;;18.37;66.84;99021.19;5110789;28;20024;-83
2022/06/17 07:26:06;;;;;;;5.97;5.07;;;;;;;18.48;66.46;99024.38;5110488;28;20023;-82
2022/06/17 07:28:32;;;;;;;5.50;4.72;;;;;;;18.59;65.65;99028.41;5110370;28;20027;-84
2022/06/17 07:30:58;;;;;;;6.63;4.35;;;;;;;18.64;65.27;99027.41;5110155;28;20065;-81
2022/06/17 07:33:27;;;;;;;8.02;4.43;;;;;;;18.69;65.08;99029.97;5109211;28;20023;-82
2022/06/17 07:35:57;;;;;;;8.10;4.93;;;;;;;18.72;65.01;99032.09;5109493;28;20023;-83
2022/06/17 07:41:11;;;;;;;6.95;4.28;;;;;;;18.74;64.05;99035.34;5105947;28;20095;-80
2022/06/17 07:43:36;;;;;;;5.45;4.28;;;;;;;18.77;63.57;99022.72;5109786;28;20031;-82
2022/06/17 07:46:04;;;;;;;4.70;3.80;;;;;;;18.82;63.90;99024.50;5091124;28;20073;-81
2022/06/17 07:48:30;;;;;;;4.00;3.67;;;;;;;18.98;64.07;99036.66;5110014;28;20024;-80
2022/06/17 07:50:58;;;;;;;5.10;4.50;;;;;;;19.14;63.20;99041.63;5105003;28;20030;-81
2022/06/17 07:53:25;;;;;;;5.43;4.50;;;;;;;19.22;62.91;99037.97;5105027;28;20035;-81
2022/06/17 07:55:52;;;;;;;4.85;4.05;;;;;;;19.22;62.99;99035.19;5107637;28;20031;-83
2022/06/17 07:58:18;;;;;;;6.43;4.10;;;;;;;19.30;62.11;99039.03;5107541;28;20042;-81
2022/06/17 08:00:45;;;;;;;6.47;3.65;;;;;;;19.36;62.26;99045.22;5107472;28;20554;-79
2022/06/17 08:03:13;;;;;;;5.38;3.33;;;;;;;19.38;61.81;99048.44;5107973;28;20019;-78
2022/06/17 08:05:42;;;;;;;6.65;3.22;;;;;;;19.34;61.17;99057.50;5106503;28;20027;-77
2022/06/17 08:08:08;;;;;;;5.70;3.05;;;;;;;19.29;60.68;99066.06;5107434;28;20798;-78
2022/06/17 08:10:36;;;;;;;5.85;3.92;;;;;;;19.23;60.48;99059.06;5111803;28;20028;-77
2022/06/17 08:13:06;;;;;;;3.50;2.75;;;;;;;19.28;59.49;99055.25;5091808;28;20630;-78
2022/06/17 08:15:32;;;;;;;5.93;3.28;;;;;;;19.35;59.94;99058.31;5113078;28;20039;-78
2022/06/17 08:17:58;;;;;;;4.25;3.10;;;;;;;19.42;59.69;99064.13;5109239;28;20043;-78
2022/06/17 08:20:29;;;;;;;3.20;2.30;;;;;;;19.43;58.73;99065.75;5106712;28;20418;-79
2022/06/17 08:22:54;;;;;;;3.75;2.42;;;;;;;19.43;58.03;99068.53;5108098;28;20035;-79
2022/06/17 08:25:20;;;;;;;5.45;2.10;;;;;;;19.53;58.26;99060.94;5112330;28;20030;-78
2022/06/17 08:27:54;;;;;;;3.63;2.22;;;;;;;19.61;58.10;99069.19;5110771;28;20096;-82
2022/06/17 08:30:23;;;;;;;2.92;1.95;;;;;;;19.66;57.09;99076.50;5104126;27;20031;-78
2022/06/17 08:32:53;;;;;;;4.15;2.47;;;;;;;19.71;55.93;99083.84;5097479;27;20073;-79
2022/06/17 08:35:20;;;;;;;;;;;;;;;19.68;55.20;99092.88;5109479;28;20479;-79
2022/06/17 08:37:48;;;;;;;2.78;2.33;;;;;;;19.67;55.70;99085.69;5110367;27;19919;-77
2022/06/17 08:40:50;;;;;;;3.63;2.10;;;;;;;19.72;55.42;99086.28;5108624;27;20035;-79
2022/06/17 08:43:34;;;;;;;3.03;2.30;;;;;;;19.86;55.92;99085.97;5034346;28;20091;-79
2022/06/17 08:46:29;;;;;;;3.20;2.28;;;;;;;20.08;56.86;99081.19;5111862;28;20036;-80
2022/06/17 08:49:32;;;;;;;3.00;2.00;;;;;;;20.43;55.87;99086.34;5111543;28;20036;-79
2022/06/17 08:52:21;;;;;;;3.25;1.60;;;;;;;20.59;55.07;99088.41;5111003;28;20456;-79
2022/06/17 08:55:08;;;;;;;2.10;1.70;;;;;;;20.63;54.70;99101.31;5111626;28;20124;-79
2022/06/17 08:58:12;;;;;;;2.58;1.65;;;;;;;20.56;53.96;99103.06;5111189;28;20039;-80
2022/06/17 09:00:40;;;;;;;2.70;1.77;;;;;;;20.48;53.13;99110.38;5112089;28;20115;-80
2022/06/17 09:03:28;;;;;;;5.43;2.97;;;;;;;20.35;53.33;99118.72;5112033;28;20036;-79
2022/06/17 09:06:27;;;;;;;7.57;5.28;;;;;;;20.30;53.73;99120.91;5111684;28;20198;-80
2022/06/17 09:09:11;;;;;;;4.30;3.53;;;;;;;20.32;53.50;99119.41;5111065;28;20034;-80
2022/06/17 09:11:56;;;;;;;4.70;2.00;;;;;;;20.34;52.71;99124.63;5093734;28;20036;-73
2022/06/17 09:14:31;;;;;;;3.92;1.92;;;;;;;20.31;53.22;99120.56;5092969;28;20044;-74
2022/06/17 09:16:59;;;;;;;2.50;2.08;;;;;;;20.13;51.78;99133.88;5092716;28;20036;-74
2022/06/17 09:19:38;;;;;;;2.85;1.92;;;;;;;20.00;53.10;99140.56;5109443;28;20027;-74
2022/06/17 09:22:15;;;;;;;3.83;2.40;;;;;;;19.89;51.97;99129.06;5110481;28;20031;-74
2022/06/17 09:24:43;;;;;;;3.38;2.10;;;;;;;19.78;52.37;99129.44;5110402;28;20024;-75
2022/06/17 09:27:10;;;;;;;2.47;1.90;;;;;;;;;;5110833;28;20066;-74
2022/06/17 09:29:54;;;;;;;2.28;1.60;;;;;;;19.82;52.23;99126.78;5110521;28;20548;-74
2022/06/17 09:32:43;;;;;;;4.13;2.53;;;;;;;19.93;52.21;99118.84;5110073;28;20027;-72
2022/06/17 09:35:09;;;;;;;;;;;;;;;20.02;51.85;99121.53;5111359;27;20118;-73
2022/06/17 09:37:45;;;;;;;3.17;1.85;;;;;;;19.94;50.80;99120.50;5110866;28;20546;-72
2022/06/17 09:40:19;;;;;;;2.15;1.70;;;;;;;19.88;51.27;99127.38;5111842;28;20088;-72
2022/06/17 09:43:01;;;;;;;2.95;2.10;;;;;;;19.84;49.97;99132.81;5111542;28;20059;-70
2022/06/17 09:45:30;;;;;;;2.80;1.90;;;;;;;19.75;50.95;99135.69;5111154;28;20024;-72
2022/06/17 09:48:08;;;;;;;2.13;1.58;;;;;;;19.79;51.04;99141.38;5109031;28;20100;-70
2022/06/17 09:50:46;;;;;;;3.53;1.40;;;;;;;19.88;50.61;99150.50;5110333;28;20029;-72
2022/06/17 09:53:21;;;;;;;2.25;1.70;;;;;;;19.88;49.93;99136.56;5104529;28;20096;-71
2022/06/17 09:55:53;;;;;;;2.20;1.20;;;;;;;19.91;49.90;99140.66;5108193;28;20065;-69
2022/06/17 09:58:29;;;;;;;1.40;1.25;;;;;;;19.93;50.24;99136.34;5109975;28;20436;-70
2022/06/17 10:00:57;;;;;;;3.33;2.08;;;;;;;19.97;49.73;99136.47;5110278;28;20027;-71
2022/06/17 10:03:31;;;;;;;1.40;1.30;;;;;;;19.98;49.88;99134.53;5091177;28;20032;-71
2022/06/17 10:06:21;;;;;;;3.08;1.40;;;;;;;20.03;49.66;99137.09;5109111;28;20054;-72
2022/06/17 10:09:02;;;;;;;2.22;1.20;;;;;;;20.10;48.43;99144.88;5109918;28;20027;-71
2022/06/17 10:11:54;;;;;;;1.83;1.20;;;;;;;20.03;47.95;99145.44;5110183;28;20057;-72
2022/06/17 10:14:44;;;;;;;1.55;1.40;;;;;;;20.00;49.13;99149.72;5110283;27;20058;-72
2022/06/17 10:20:24;;;;;;;3.20;2.85;;;;;;;20.24;48.72;99137.03;5109080;28;20088;-71
2022/06/17 10:23:16;;;;;;;9.90;8.90;;;;;;;20.38;46.94;99150.63;5109374;28;20031;-72
2022/06/17 10:25:50;;;;;;;2.30;1.48;;;;;;;20.31;47.87;99148.44;5107843;28;20546;-72
2022/06/17 10:28:31;;;;;;;1.55;1.05;;;;;;;20.31;48.23;99144.81;5108272;28;20102;-71
2022/06/17 10:31:22;;;;;;;2.72;1.17;;;;;;;20.33;48.34;99134.97;5108024;28;20031;-71
2022/06/17 10:33:48;;;;;;;1.48;1.35;;;;;;;20.26;47.44;99136.69;5083463;28;20389;-72
2022/06/17 10:36:14;;;;;;;1.20;1.10;;;;;;;20.15;46.70;99144.66;5109251;28;20046;-74
2022/06/17 10:38:46;;;;;;;2.63;1.00;;;;;;;20.14;47.34;99138.28;5109738;28;20054;-72
2022/06/17 10:41:13;;;;;;;0.93;0.70;;;;;;;20.22;47.09;99144.91;5109785;28;20057;-72
2022/06/17 10:43:41;;;;;;;1.75;0.70;;;;;;;20.26;47.58;99143.06;5110537;28;20092;-73
2022/06/17 10:46:14;;;;;;;0.90;0.80;;;;;;;20.29;47.33;99147.97;5109404;28;20031;-73
2022/06/17 10:49:02;;;;;;;1.35;0.80;;;;;;;20.32;44.58;99135.31;5109382;28;20488;-72
2022/06/17 10:51:29;;;;;;;1.60;0.77;;;;;;;20.33;45.33;99129.41;5091902;28;20039;-73
2022/06/17 10:54:02;;;;;;;1.50;0.63;;;;;;;20.40;45.36;99130.78;5109736;28;20100;-71
2022/06/17 10:56:38;;;;;;;1.33;0.50;;;;;;;20.54;45.76;99125.69;5109661;28;20095;-71
2022/06/17 10:59:08;;;;;;;2.17;0.50;;;;;;;20.59;45.59;99133.00;5109402;28;20138;-71
2022/06/17 11:01:46;;;;;;;1.05;0.60;;;;;;;20.58;43.55;99136.97;5109895;28;20070;-71
2022/06/17 11:04:39;;;;;;;1.27;0.80;;;;;;;20.55;44.64;99134.88;5110195;28;20054;-72
2022/06/17 11:07:15;;;;;;;0.63;0.50;;;;;;;20.69;45.88;99126.97;5094674;28;20028;-71
2022/06/17 11:09:54;;;;;;;1.20;0.90;;;;;;;20.86;45.22;99141.88;5109381;28;20098;-70
2022/06/17 11:12:24;;;;;;;1.92;0.70;;;;;;;21.00;46.27;99136.75;5109536;28;20063;-70
2022/06/17 11:15:06;;;;;;;1.58;0.68;;;;;;;21.04;43.94;99140.47;5109186;28;20146;-72
2022/06/17 11:17:37;;;;;;;1.02;0.60;;;;;;;21.07;43.56;99144.56;5108974;28;20030;-71
2022/06/17 11:20:16;;;;;;;0.88;0.50;;;;;;;21.10;42.86;99146.63;5109081;28;20539;-71
2022/06/17 11:22:55;;;;;;;3.88;0.90;;;;;;;21.10;41.80;99139.06;5109191;28;20030;-71
2022/06/17 11:25:35;;;;;;;1.73;0.80;;;;;;;21.24;42.41;99132.31;5109237;28;20024;-71
2022/06/17 11:28:22;;;;;;;1.40;0.70;;;;;;;21.36;40.17;99149.03;5109088;28;20459;-71
2022/06/17 11:30:50;;;;;;;2.50;0.90;;;;;;;21.33;40.77;99138.59;5113308;28;20038;-70
2022/06/17 11:33:27;;;;;;;2.80;0.80;;;;;;;21.37;41.74;99135.88;5109403;28;20164;-72
2022/06/17 11:36:35;;;;;;;1.48;0.80;;;;;;;21.50;41.67;99139.44;5108856;28;20111;-71
2022/06/17 11:39:27;;;;;;;3.60;0.93;;;;;;;21.61;41.46;99136.97;5060404;28;20039;-71
2022/06/17 11:41:52;;;;;;;1.50;0.70;;;;;;;21.63;42.12;99134.66;5095764;28;20088;-71
2022/06/17 11:44:20;;;;;;;3.10;1.60;;;;;;;21.66;41.79;99147.91;5108638;28;20063;-71
2022/06/17 11:46:53;;;;;;;1.92;1.00;;;;;;;21.66;42.25;99139.53;5108501;28;20034;-69
2022/06/17 11:49:20;;;;;;;1.27;0.85;;;;;;;21.78;42.55;99144.28;5108446;28;20028;-71
2022/06/17 11:52:00;;;;;;;1.85;1.13;;;;;;;21.87;42.21;99139.34;5108204;28;20482;-72
2022/06/17 11:54:32;;;;;;;1.17;0.80;;;;;;;22.00;41.91;99134.53;5108218;28;20483;-72
2022/06/17 11:56:59;;;;;;;1.00;0.90;;;;;;;22.08;42.62;99138.34;5109111;28;20055;-72
2022/06/17 11:59:38;;;;;;;2.47;1.10;;;;;;;22.11;42.93;99144.00;5104788;28;20495;-70
2022/06/17 12:02:07;;;;;;;2.22;1.10;;;;;;;22.00;42.26;99143.72;5111740;27;20020;-72